sensor_id;sensor_type;location;lat;lon;timestamp;P1;durP1;ratioP1;P2;durP2;ratioP2
18376;SDS011;9315;52.624;13.544;2022-08-21T00:00:24;16.27;;;12.70;;
18376;SDS011;9315;52.624;13.544;2022-08-21T00:03:01;14.38;;;11.15;;
18376;SDS011;9315;52.624;13.544;2022-08-21T00:05:33;19.43;;;13.17;;
18376;SDS011;9315;52.624;13.544;2022-08-21T00:08:06;18.25;;;12.77;;
18376;SDS011;9315;52.624;13.544;2022-08-21T00:10:34;19.77;;;13.30;;
18376;SDS011;9315;52.624;13.544;2022-08-21T00:13:03;17.33;;;12.75;;
18376;SDS011;9315;52.624;13.544;2022-08-21T00:15:31;18.93;;;12.60;;
18376;SDS011;9315;52.624;13.544;2022-08-21T00:18:02;18.50;;;13.43;;
18376;SDS011;9315;52.624;13.544;2022-08-21T00:20:32;19.48;;;13.93;;
18376;SDS011;9315;52.624;13.544;2022-08-21T00:23:01;16.73;;;12.30;;
18376;SDS011;9315;52.624;13.544;2022-08-21T00:25:28;22.90;;;13.55;;
18376;SDS011;9315;52.624;13.544;2022-08-21T00:27:56;23.47;;;14.80;;
18376;SDS011;9315;52.624;13.544;2022-08-21T00:30:24;20.75;;;14.30;;
18376;SDS011;9315;52.624;13.544;2022-08-21T00:32:53;20.63;;;13.97;;
18376;SDS011;9315;52.624;13.544;2022-08-21T00:35:23;16.58;;;12.60;;
18376;SDS011;9315;52.624;13.544;2022-08-21T00:37:58;20.23;;;13.68;;
18376;SDS011;9315;52.624;13.544;2022-08-21T00:40:28;20.30;;;13.43;;
18376;SDS011;9315;52.624;13.544;2022-08-21T00:43:28;19.35;;;13.10;;
18376;SDS011;9315;52.624;13.544;2022-08-21T00:45:59;20.17;;;13.77;;
18376;SDS011;9315;52.624;13.544;2022-08-21T00:48:28;17.90;;;12.65;;
18376;SDS011;9315;52.624;13.544;2022-08-21T00:50:56;19.00;;;13.23;;
18376;SDS011;9315;52.624;13.544;2022-08-21T00:53:37;17.87;;;13.17;;
18376;SDS011;9315;52.624;13.544;2022-08-21T00:56:15;20.42;;;12.57;;
18376;SDS011;9315;52.624;13.544;2022-08-21T00:58:43;17.55;;;10.60;;
18376;SDS011;9315;52.624;13.544;2022-08-21T01:01:14;14.57;;;10.97;;
18376;SDS011;9315;52.624;13.544;2022-08-21T01:03:44;16.08;;;9.88;;
18376;SDS011;9315;52.624;13.544;2022-08-21T01:06:15;14.95;;;10.23;;
18376;SDS011;9315;52.624;13.544;2022-08-21T01:08:42;13.48;;;10.48;;
18376;SDS011;9315;52.624;13.544;2022-08-21T01:11:12;18.35;;;10.77;;
18376;SDS011;9315;52.624;13.544;2022-08-21T01:13:43;19.20;;;10.48;;
18376;SDS011;9315;52.624;13.544;2022-08-21T01:16:13;13.18;;;11.05;;
18376;SDS011;9315;52.624;13.544;2022-08-21T01:18:46;16.92;;;10.55;;
18376;SDS011;9315;52.624;13.544;2022-08-21T01:21:19;17.90;;;10.37;;
18376;SDS011;9315;52.624;13.544;2022-08-21T01:23:54;16.80;;;10.38;;
18376;SDS011;9315;52.624;13.544;2022-08-21T01:26:24;13.32;;;9.07;;
18376;SDS011;9315;52.624;13.544;2022-08-21T01:29:11;10.98;;;7.72;;
18376;SDS011;9315;52.624;13.544;2022-08-21T01:32:12;15.40;;;9.48;;
18376;SDS011;9315;52.624;13.544;2022-08-21T01:34:43;14.52;;;10.05;;
18376;SDS011;9315;52.624;13.544;2022-08-21T01:37:13;12.10;;;9.02;;
18376;SDS011;9315;52.624;13.544;2022-08-21T01:39:43;13.73;;;8.93;;
18376;SDS011;9315;52.624;13.544;2022-08-21T01:42:11;14.50;;;8.93;;
18376;SDS011;9315;52.624;13.544;2022-08-21T01:44:39;18.40;;;9.23;;
18376;SDS011;9315;52.624;13.544;2022-08-21T01:47:07;12.37;;;9.10;;
18376;SDS011;9315;52.624;13.544;2022-08-21T01:49:39;11.40;;;9.13;;
18376;SDS011;9315;52.624;13.544;2022-08-21T01:52:08;11.97;;;8.53;;
18376;SDS011;9315;52.624;13.544;2022-08-21T01:54:36;17.88;;;8.95;;
18376;SDS011;9315;52.624;13.544;2022-08-21T01:57:06;14.90;;;9.63;;
18376;SDS011;9315;52.624;13.544;2022-08-21T01:59:34;16.13;;;9.73;;
18376;SDS011;9315;52.624;13.544;2022-08-21T02:02:03;10.87;;;8.37;;
18376;SDS011;9315;52.624;13.544;2022-08-21T02:04:31;15.32;;;9.02;;
18376;SDS011;9315;52.624;13.544;2022-08-21T02:06:59;16.17;;;8.27;;
18376;SDS011;9315;52.624;13.544;2022-08-21T02:09:27;14.30;;;9.07;;
18376;SDS011;9315;52.624;13.544;2022-08-21T02:11:55;14.60;;;8.47;;
18376;SDS011;9315;52.624;13.544;2022-08-21T02:14:22;16.17;;;8.37;;
18376;SDS011;9315;52.624;13.544;2022-08-21T02:16:58;12.80;;;7.90;;
18376;SDS011;9315;52.624;13.544;2022-08-21T02:19:34;14.37;;;8.33;;
18376;SDS011;9315;52.624;13.544;2022-08-21T02:22:05;17.57;;;9.37;;
18376;SDS011;9315;52.624;13.544;2022-08-21T02:24:36;12.83;;;8.43;;
18376;SDS011;9315;52.624;13.544;2022-08-21T02:27:20;14.27;;;8.70;;
18376;SDS011;9315;52.624;13.544;2022-08-21T02:29:53;13.23;;;8.07;;
18376;SDS011;9315;52.624;13.544;2022-08-21T02:32:23;17.40;;;8.87;;
18376;SDS011;9315;52.624;13.544;2022-08-21T02:34:52;22.20;;;8.70;;
18376;SDS011;9315;52.624;13.544;2022-08-21T02:37:19;12.73;;;8.40;;
18376;SDS011;9315;52.624;13.544;2022-08-21T02:39:49;13.70;;;7.50;;
18376;SDS011;9315;52.624;13.544;2022-08-21T02:42:16;13.33;;;8.17;;
18376;SDS011;9315;52.624;13.544;2022-08-21T02:44:44;12.93;;;8.10;;
18376;SDS011;9315;52.624;13.544;2022-08-21T02:47:11;14.63;;;8.37;;
18376;SDS011;9315;52.624;13.544;2022-08-21T02:49:39;14.40;;;9.07;;
18376;SDS011;9315;52.624;13.544;2022-08-21T02:52:06;13.03;;;7.80;;
18376;SDS011;9315;52.624;13.544;2022-08-21T02:54:33;10.07;;;7.47;;
18376;SDS011;9315;52.624;13.544;2022-08-21T02:57:00;12.13;;;6.60;;
18376;SDS011;9315;52.624;13.544;2022-08-21T02:59:27;14.27;;;7.47;;
18376;SDS011;9315;52.624;13.544;2022-08-21T03:01:54;10.20;;;6.60;;
18376;SDS011;9315;52.624;13.544;2022-08-21T03:04:22;11.37;;;6.93;;
18376;SDS011;9315;52.624;13.544;2022-08-21T03:06:49;12.40;;;6.47;;
18376;SDS011;9315;52.624;13.544;2022-08-21T03:09:16;14.17;;;7.33;;
18376;SDS011;9315;52.624;13.544;2022-08-21T03:11:43;10.67;;;6.83;;
18376;SDS011;9315;52.624;13.544;2022-08-21T03:14:10;9.63;;;6.77;;
18376;SDS011;9315;52.624;13.544;2022-08-21T03:16:37;14.77;;;7.30;;
18376;SDS011;9315;52.624;13.544;2022-08-21T03:19:04;12.80;;;7.03;;
18376;SDS011;9315;52.624;13.544;2022-08-21T03:21:31;14.07;;;7.93;;
18376;SDS011;9315;52.624;13.544;2022-08-21T03:23:59;10.93;;;7.30;;
18376;SDS011;9315;52.624;13.544;2022-08-21T03:26:29;14.07;;;7.37;;
18376;SDS011;9315;52.624;13.544;2022-08-21T03:28:57;9.30;;;7.10;;
18376;SDS011;9315;52.624;13.544;2022-08-21T03:31:24;11.57;;;6.80;;
18376;SDS011;9315;52.624;13.544;2022-08-21T03:33:57;11.97;;;7.03;;
18376;SDS011;9315;52.624;13.544;2022-08-21T03:36:24;11.50;;;6.87;;
18376;SDS011;9315;52.624;13.544;2022-08-21T03:38:52;13.47;;;6.80;;
18376;SDS011;9315;52.624;13.544;2022-08-21T03:41:20;10.33;;;6.30;;
18376;SDS011;9315;52.624;13.544;2022-08-21T03:43:47;12.27;;;6.83;;
18376;SDS011;9315;52.624;13.544;2022-08-21T03:46:14;14.30;;;7.30;;
18376;SDS011;9315;52.624;13.544;2022-08-21T03:48:41;14.33;;;7.43;;
18376;SDS011;9315;52.624;13.544;2022-08-21T03:51:08;11.20;;;6.40;;
18376;SDS011;9315;52.624;13.544;2022-08-21T03:53:35;13.80;;;7.13;;
18376;SDS011;9315;52.624;13.544;2022-08-21T03:56:03;11.67;;;7.23;;
18376;SDS011;9315;52.624;13.544;2022-08-21T03:58:31;15.37;;;7.50;;
18376;SDS011;9315;52.624;13.544;2022-08-21T04:01:00;12.67;;;6.73;;
18376;SDS011;9315;52.624;13.544;2022-08-21T04:03:29;13.83;;;6.13;;
18376;SDS011;9315;52.624;13.544;2022-08-21T04:05:56;13.50;;;6.50;;
18376;SDS011;9315;52.624;13.544;2022-08-21T04:08:23;12.40;;;6.13;;
18376;SDS011;9315;52.624;13.544;2022-08-21T04:10:51;12.23;;;6.10;;
18376;SDS011;9315;52.624;13.544;2022-08-21T04:13:22;13.67;;;6.20;;
18376;SDS011;9315;52.624;13.544;2022-08-21T04:15:50;12.67;;;6.17;;
18376;SDS011;9315;52.624;13.544;2022-08-21T04:18:17;11.27;;;5.90;;
18376;SDS011;9315;52.624;13.544;2022-08-21T04:20:44;13.80;;;6.63;;
18376;SDS011;9315;52.624;13.544;2022-08-21T04:23:16;15.03;;;6.30;;
18376;SDS011;9315;52.624;13.544;2022-08-21T04:25:50;11.33;;;6.73;;
18376;SDS011;9315;52.624;13.544;2022-08-21T04:28:22;13.93;;;6.07;;
18376;SDS011;9315;52.624;13.544;2022-08-21T04:30:55;14.40;;;6.33;;
18376;SDS011;9315;52.624;13.544;2022-08-21T04:33:23;12.80;;;6.00;;
18376;SDS011;9315;52.624;13.544;2022-08-21T04:35:50;16.03;;;6.80;;
18376;SDS011;9315;52.624;13.544;2022-08-21T04:38:18;8.87;;;6.10;;
18376;SDS011;9315;52.624;13.544;2022-08-21T04:40:46;18.50;;;5.90;;
18376;SDS011;9315;52.624;13.544;2022-08-21T04:43:15;11.73;;;6.10;;
18376;SDS011;9315;52.624;13.544;2022-08-21T04:45:45;11.83;;;5.40;;
18376;SDS011;9315;52.624;13.544;2022-08-21T04:48:16;12.27;;;5.83;;
18376;SDS011;9315;52.624;13.544;2022-08-21T04:50:50;13.47;;;5.53;;
18376;SDS011;9315;52.624;13.544;2022-08-21T04:53:36;13.77;;;6.13;;
18376;SDS011;9315;52.624;13.544;2022-08-21T04:56:23;9.93;;;5.40;;
18376;SDS011;9315;52.624;13.544;2022-08-21T04:59:01;11.80;;;5.37;;
18376;SDS011;9315;52.624;13.544;2022-08-21T05:01:37;13.17;;;5.47;;
18376;SDS011;9315;52.624;13.544;2022-08-21T05:04:06;13.80;;;5.57;;
18376;SDS011;9315;52.624;13.544;2022-08-21T05:06:38;9.90;;;5.27;;
18376;SDS011;9315;52.624;13.544;2022-08-21T05:09:12;9.70;;;4.80;;
18376;SDS011;9315;52.624;13.544;2022-08-21T05:11:42;10.43;;;4.57;;
18376;SDS011;9315;52.624;13.544;2022-08-21T05:14:11;12.77;;;5.03;;
18376;SDS011;9315;52.624;13.544;2022-08-21T05:16:38;13.53;;;4.73;;
18376;SDS011;9315;52.624;13.544;2022-08-21T05:19:06;13.13;;;4.30;;
18376;SDS011;9315;52.624;13.544;2022-08-21T05:21:35;6.97;;;4.10;;
18376;SDS011;9315;52.624;13.544;2022-08-21T05:24:08;8.90;;;4.40;;
18376;SDS011;9315;52.624;13.544;2022-08-21T05:26:35;9.17;;;4.50;;
18376;SDS011;9315;52.624;13.544;2022-08-21T05:29:11;12.93;;;4.23;;
18376;SDS011;9315;52.624;13.544;2022-08-21T05:31:41;10.83;;;4.30;;
18376;SDS011;9315;52.624;13.544;2022-08-21T05:34:09;8.80;;;4.10;;
18376;SDS011;9315;52.624;13.544;2022-08-21T05:36:41;7.90;;;3.60;;
18376;SDS011;9315;52.624;13.544;2022-08-21T05:39:08;12.70;;;3.63;;
18376;SDS011;9315;52.624;13.544;2022-08-21T05:41:35;12.50;;;3.70;;
18376;SDS011;9315;52.624;13.544;2022-08-21T05:44:02;8.10;;;3.50;;
18376;SDS011;9315;52.624;13.544;2022-08-21T05:46:35;5.23;;;3.13;;
18376;SDS011;9315;52.624;13.544;2022-08-21T05:49:02;8.37;;;3.30;;
18376;SDS011;9315;52.624;13.544;2022-08-21T05:51:30;9.33;;;3.30;;
18376;SDS011;9315;52.624;13.544;2022-08-21T05:53:57;11.53;;;3.20;;
18376;SDS011;9315;52.624;13.544;2022-08-21T05:56:24;9.87;;;3.37;;
18376;SDS011;9315;52.624;13.544;2022-08-21T05:58:51;9.07;;;3.27;;
18376;SDS011;9315;52.624;13.544;2022-08-21T06:01:18;6.23;;;2.87;;
18376;SDS011;9315;52.624;13.544;2022-08-21T06:03:46;10.63;;;3.20;;
18376;SDS011;9315;52.624;13.544;2022-08-21T06:06:13;8.90;;;3.03;;
18376;SDS011;9315;52.624;13.544;2022-08-21T06:08:40;7.30;;;2.90;;
18376;SDS011;9315;52.624;13.544;2022-08-21T06:11:07;8.73;;;2.60;;
18376;SDS011;9315;52.624;13.544;2022-08-21T06:13:35;9.13;;;2.67;;
18376;SDS011;9315;52.624;13.544;2022-08-21T06:16:04;9.00;;;2.70;;
18376;SDS011;9315;52.624;13.544;2022-08-21T06:18:41;10.90;;;3.07;;
18376;SDS011;9315;52.624;13.544;2022-08-21T06:21:11;7.40;;;3.07;;
18376;SDS011;9315;52.624;13.544;2022-08-21T06:23:39;7.67;;;2.60;;
18376;SDS011;9315;52.624;13.544;2022-08-21T06:26:07;6.27;;;2.50;;
18376;SDS011;9315;52.624;13.544;2022-08-21T06:28:38;8.83;;;3.03;;
18376;SDS011;9315;52.624;13.544;2022-08-21T06:31:14;10.70;;;3.00;;
18376;SDS011;9315;52.624;13.544;2022-08-21T06:33:47;7.67;;;2.70;;
18376;SDS011;9315;52.624;13.544;2022-08-21T06:36:14;8.33;;;2.40;;
18376;SDS011;9315;52.624;13.544;2022-08-21T06:38:42;8.87;;;2.40;;
18376;SDS011;9315;52.624;13.544;2022-08-21T06:41:17;6.83;;;2.70;;
18376;SDS011;9315;52.624;13.544;2022-08-21T06:43:52;9.40;;;2.60;;
18376;SDS011;9315;52.624;13.544;2022-08-21T06:46:22;5.53;;;2.27;;
18376;SDS011;9315;52.624;13.544;2022-08-21T06:48:56;6.87;;;2.47;;
18376;SDS011;9315;52.624;13.544;2022-08-21T06:51:24;8.67;;;2.63;;
18376;SDS011;9315;52.624;13.544;2022-08-21T06:53:52;9.03;;;2.40;;
18376;SDS011;9315;52.624;13.544;2022-08-21T06:56:20;6.87;;;2.30;;
18376;SDS011;9315;52.624;13.544;2022-08-21T06:58:47;6.83;;;2.37;;
18376;SDS011;9315;52.624;13.544;2022-08-21T07:01:14;7.97;;;2.20;;
18376;SDS011;9315;52.624;13.544;2022-08-21T07:03:41;7.87;;;2.37;;
18376;SDS011;9315;52.624;13.544;2022-08-21T07:06:10;6.97;;;1.93;;
18376;SDS011;9315;52.624;13.544;2022-08-21T07:08:37;6.77;;;2.20;;
18376;SDS011;9315;52.624;13.544;2022-08-21T07:11:11;6.15;;;2.00;;
18376;SDS011;9315;52.624;13.544;2022-08-21T07:13:44;6.30;;;1.40;;
18376;SDS011;9315;52.624;13.544;2022-08-21T07:16:12;6.97;;;1.67;;
18376;SDS011;9315;52.624;13.544;2022-08-21T07:18:39;6.70;;;1.73;;
18376;SDS011;9315;52.624;13.544;2022-08-21T07:21:07;7.33;;;1.47;;
18376;SDS011;9315;52.624;13.544;2022-08-21T07:23:37;7.77;;;1.73;;
18376;SDS011;9315;52.624;13.544;2022-08-21T07:26:11;8.93;;;1.57;;
18376;SDS011;9315;52.624;13.544;2022-08-21T07:28:40;8.05;;;1.60;;
18376;SDS011;9315;52.624;13.544;2022-08-21T07:31:08;6.60;;;1.42;;
18376;SDS011;9315;52.624;13.544;2022-08-21T07:33:39;7.55;;;1.40;;
18376;SDS011;9315;52.624;13.544;2022-08-21T07:36:07;10.52;;;1.73;;
18376;SDS011;9315;52.624;13.544;2022-08-21T07:38:35;5.97;;;1.30;;
18376;SDS011;9315;52.624;13.544;2022-08-21T07:41:04;7.47;;;1.55;;
18376;SDS011;9315;52.624;13.544;2022-08-21T07:43:49;5.93;;;1.60;;
18376;SDS011;9315;52.624;13.544;2022-08-21T07:46:18;7.38;;;1.40;;
18376;SDS011;9315;52.624;13.544;2022-08-21T07:48:45;8.02;;;1.40;;
18376;SDS011;9315;52.624;13.544;2022-08-21T07:51:13;5.25;;;0.95;;
18376;SDS011;9315;52.624;13.544;2022-08-21T07:53:47;4.00;;;1.55;;
18376;SDS011;9315;52.624;13.544;2022-08-21T07:56:18;7.13;;;1.30;;
18376;SDS011;9315;52.624;13.544;2022-08-21T07:58:46;7.18;;;1.02;;
18376;SDS011;9315;52.624;13.544;2022-08-21T08:01:18;3.90;;;1.00;;
18376;SDS011;9315;52.624;13.544;2022-08-21T08:03:46;8.65;;;1.60;;
18376;SDS011;9315;52.624;13.544;2022-08-21T08:06:13;7.40;;;1.55;;
18376;SDS011;9315;52.624;13.544;2022-08-21T08:08:42;7.55;;;1.25;;
18376;SDS011;9315;52.624;13.544;2022-08-21T08:11:10;5.75;;;1.30;;
18376;SDS011;9315;52.624;13.544;2022-08-21T08:13:42;6.32;;;1.17;;
18376;SDS011;9315;52.624;13.544;2022-08-21T08:16:15;6.38;;;1.70;;
18376;SDS011;9315;52.624;13.544;2022-08-21T08:18:44;7.40;;;0.90;;
18376;SDS011;9315;52.624;13.544;2022-08-21T08:21:12;5.22;;;1.20;;
18376;SDS011;9315;52.624;13.544;2022-08-21T08:23:39;4.60;;;1.30;;
18376;SDS011;9315;52.624;13.544;2022-08-21T08:26:06;9.95;;;1.20;;
18376;SDS011;9315;52.624;13.544;2022-08-21T08:28:33;5.43;;;1.20;;
18376;SDS011;9315;52.624;13.544;2022-08-21T08:31:00;5.55;;;1.73;;
18376;SDS011;9315;52.624;13.544;2022-08-21T08:33:27;6.22;;;1.42;;
18376;SDS011;9315;52.624;13.544;2022-08-21T08:35:55;5.55;;;1.20;;
18376;SDS011;9315;52.624;13.544;2022-08-21T08:38:23;14.55;;;1.27;;
18376;SDS011;9315;52.624;13.544;2022-08-21T08:40:53;10.70;;;1.23;;
18376;SDS011;9315;52.624;13.544;2022-08-21T08:43:58;5.72;;;1.58;;
18376;SDS011;9315;52.624;13.544;2022-08-21T08:46:32;3.15;;;0.90;;
18376;SDS011;9315;52.624;13.544;2022-08-21T08:49:23;2.60;;;0.90;;
18376;SDS011;9315;52.624;13.544;2022-08-21T08:55:02;4.70;;;1.05;;
18376;SDS011;9315;52.624;13.544;2022-08-21T08:57:45;3.17;;;0.95;;
18376;SDS011;9315;52.624;13.544;2022-08-21T09:00:16;3.88;;;1.05;;
18376;SDS011;9315;52.624;13.544;2022-08-21T09:02:47;4.57;;;1.00;;
18376;SDS011;9315;52.624;13.544;2022-08-21T09:05:23;8.68;;;1.30;;
18376;SDS011;9315;52.624;13.544;2022-08-21T09:10:57;9.70;;;1.58;;
18376;SDS011;9315;52.624;13.544;2022-08-21T09:13:48;9.27;;;1.00;;
18376;SDS011;9315;52.624;13.544;2022-08-21T09:20:08;4.93;;;1.10;;
18376;SDS011;9315;52.624;13.544;2022-08-21T09:26:16;4.97;;;1.20;;
18376;SDS011;9315;52.624;13.544;2022-08-21T09:28:54;5.50;;;1.20;;
18376;SDS011;9315;52.624;13.544;2022-08-21T09:31:26;5.13;;;1.10;;
18376;SDS011;9315;52.624;13.544;2022-08-21T09:33:59;4.88;;;1.05;;
18376;SDS011;9315;52.624;13.544;2022-08-21T09:39:11;5.15;;;1.23;;
18376;SDS011;9315;52.624;13.544;2022-08-21T09:41:56;4.18;;;0.82;;
18376;SDS011;9315;52.624;13.544;2022-08-21T09:44:31;4.82;;;0.95;;
18376;SDS011;9315;52.624;13.544;2022-08-21T09:47:06;7.30;;;1.42;;
18376;SDS011;9315;52.624;13.544;2022-08-21T09:49:36;6.57;;;1.17;;
18376;SDS011;9315;52.624;13.544;2022-08-21T09:52:17;3.50;;;1.02;;
18376;SDS011;9315;52.624;13.544;2022-08-21T09:54:51;3.25;;;1.20;;
18376;SDS011;9315;52.624;13.544;2022-08-21T09:57:25;5.63;;;1.00;;
18376;SDS011;9315;52.624;13.544;2022-08-21T10:00:31;10.45;;;1.60;;
18376;SDS011;9315;52.624;13.544;2022-08-21T10:03:07;2.72;;;1.02;;
18376;SDS011;9315;52.624;13.544;2022-08-21T10:08:37;4.38;;;1.15;;
18376;SDS011;9315;52.624;13.544;2022-08-21T10:11:08;3.72;;;1.10;;
18376;SDS011;9315;52.624;13.544;2022-08-21T10:13:53;5.15;;;1.05;;
18376;SDS011;9315;52.624;13.544;2022-08-21T10:16:43;9.40;;;1.10;;
18376;SDS011;9315;52.624;13.544;2022-08-21T10:19:46;6.43;;;0.95;;
18376;SDS011;9315;52.624;13.544;2022-08-21T10:35:28;3.88;;;1.30;;
18376;SDS011;9315;52.624;13.544;2022-08-21T10:47:35;8.45;;;1.75;;
18376;SDS011;9315;52.624;13.544;2022-08-21T10:53:11;1.38;;;0.80;;
18376;SDS011;9315;52.624;13.544;2022-08-21T10:56:22;3.75;;;0.93;;
18376;SDS011;9315;52.624;13.544;2022-08-21T11:02:15;3.13;;;0.98;;
18376;SDS011;9315;52.624;13.544;2022-08-21T11:05:05;7.70;;;1.13;;
18376;SDS011;9315;52.624;13.544;2022-08-21T11:08:07;4.38;;;1.10;;
18376;SDS011;9315;52.624;13.544;2022-08-21T11:10:57;4.15;;;1.02;;
18376;SDS011;9315;52.624;13.544;2022-08-21T11:16:45;3.33;;;1.08;;
18376;SDS011;9315;52.624;13.544;2022-08-21T11:19:45;7.88;;;1.30;;
18376;SDS011;9315;52.624;13.544;2022-08-21T11:25:21;6.57;;;1.33;;
18376;SDS011;9315;52.624;13.544;2022-08-21T11:28:09;3.22;;;0.90;;
18376;SDS011;9315;52.624;13.544;2022-08-21T11:34:03;6.95;;;1.10;;
18376;SDS011;9315;52.624;13.544;2022-08-21T11:49:49;3.13;;;1.02;;
18376;SDS011;9315;52.624;13.544;2022-08-21T11:56:23;2.70;;;0.85;;
18376;SDS011;9315;52.624;13.544;2022-08-21T11:59:19;4.28;;;1.15;;
18376;SDS011;9315;52.624;13.544;2022-08-21T12:01:55;4.60;;;1.27;;
18376;SDS011;9315;52.624;13.544;2022-08-21T12:04:29;5.25;;;1.10;;
18376;SDS011;9315;52.624;13.544;2022-08-21T12:07:10;4.47;;;0.85;;
18376;SDS011;9315;52.624;13.544;2022-08-21T12:10:08;6.35;;;1.10;;
18376;SDS011;9315;52.624;13.544;2022-08-21T12:12:48;1.85;;;0.82;;
18376;SDS011;9315;52.624;13.544;2022-08-21T12:17:59;3.65;;;0.88;;
18376;SDS011;9315;52.624;13.544;2022-08-21T12:24:37;3.17;;;0.95;;
18376;SDS011;9315;52.624;13.544;2022-08-21T12:26:50;2.83;;;0.80;;
18376;SDS011;9315;52.624;13.544;2022-08-21T12:29:23;5.88;;;0.90;;
18376;SDS011;9315;52.624;13.544;2022-08-21T12:32:03;3.35;;;0.98;;
18376;SDS011;9315;52.624;13.544;2022-08-21T12:34:38;4.35;;;1.10;;
18376;SDS011;9315;52.624;13.544;2022-08-21T12:40:50;1.83;;;0.70;;
18376;SDS011;9315;52.624;13.544;2022-08-21T12:43:43;4.60;;;0.73;;
18376;SDS011;9315;52.624;13.544;2022-08-21T12:46:37;4.60;;;0.60;;
18376;SDS011;9315;52.624;13.544;2022-08-21T12:52:19;2.15;;;0.60;;
18376;SDS011;9315;52.624;13.544;2022-08-21T12:55:06;2.63;;;0.82;;
18376;SDS011;9315;52.624;13.544;2022-08-21T12:57:41;5.25;;;0.70;;
18376;SDS011;9315;52.624;13.544;2022-08-21T13:00:10;2.47;;;0.80;;
18376;SDS011;9315;52.624;13.544;2022-08-21T13:02:46;0.90;;;0.50;;
18376;SDS011;9315;52.624;13.544;2022-08-21T13:05:30;1.10;;;0.60;;
18376;SDS011;9315;52.624;13.544;2022-08-21T13:08:04;5.13;;;0.70;;
18376;SDS011;9315;52.624;13.544;2022-08-21T13:10:35;5.28;;;0.75;;
18376;SDS011;9315;52.624;13.544;2022-08-21T13:13:05;1.33;;;0.75;;
18376;SDS011;9315;52.624;13.544;2022-08-21T13:15:57;1.23;;;0.60;;
18376;SDS011;9315;52.624;13.544;2022-08-21T13:21:26;1.23;;;0.52;;
18376;SDS011;9315;52.624;13.544;2022-08-21T13:30:42;1.98;;;0.88;;
18376;SDS011;9315;52.624;13.544;2022-08-21T13:33:21;1.75;;;0.57;;
18376;SDS011;9315;52.624;13.544;2022-08-21T13:36:11;3.60;;;0.70;;
18376;SDS011;9315;52.624;13.544;2022-08-21T13:38:53;4.75;;;0.73;;
18376;SDS011;9315;52.624;13.544;2022-08-21T13:41:24;0.60;;;0.40;;
18376;SDS011;9315;52.624;13.544;2022-08-21T13:43:58;1.42;;;0.50;;
18376;SDS011;9315;52.624;13.544;2022-08-21T13:46:46;1.38;;;0.70;;
18376;SDS011;9315;52.624;13.544;2022-08-21T13:49:17;2.13;;;0.50;;
18376;SDS011;9315;52.624;13.544;2022-08-21T13:51:55;3.15;;;0.93;;
18376;SDS011;9315;52.624;13.544;2022-08-21T13:54:23;4.03;;;0.70;;
18376;SDS011;9315;52.624;13.544;2022-08-21T13:56:59;2.92;;;0.75;;
18376;SDS011;9315;52.624;13.544;2022-08-21T13:59:27;4.53;;;0.50;;
18376;SDS011;9315;52.624;13.544;2022-08-21T14:02:10;1.63;;;0.60;;
18376;SDS011;9315;52.624;13.544;2022-08-21T14:04:56;3.60;;;0.70;;
18376;SDS011;9315;52.624;13.544;2022-08-21T14:07:31;3.03;;;0.63;;
18376;SDS011;9315;52.624;13.544;2022-08-21T14:10:07;1.75;;;0.70;;
18376;SDS011;9315;52.624;13.544;2022-08-21T14:15:29;1.00;;;0.60;;
18376;SDS011;9315;52.624;13.544;2022-08-21T14:18:15;3.28;;;0.80;;
18376;SDS011;9315;52.624;13.544;2022-08-21T14:20:45;1.67;;;0.60;;
18376;SDS011;9315;52.624;13.544;2022-08-21T14:23:23;3.97;;;0.88;;
18376;SDS011;9315;52.624;13.544;2022-08-21T14:25:53;3.17;;;1.08;;
18376;SDS011;9315;52.624;13.544;2022-08-21T14:28:33;4.97;;;1.00;;
18376;SDS011;9315;52.624;13.544;2022-08-21T14:31:15;3.70;;;1.00;;
18376;SDS011;9315;52.624;13.544;2022-08-21T14:33:47;3.83;;;0.85;;
18376;SDS011;9315;52.624;13.544;2022-08-21T14:36:14;4.32;;;0.80;;
18376;SDS011;9315;52.624;13.544;2022-08-21T14:38:41;1.48;;;0.80;;
18376;SDS011;9315;52.624;13.544;2022-08-21T14:41:16;2.30;;;0.90;;
18376;SDS011;9315;52.624;13.544;2022-08-21T14:43:50;2.95;;;0.90;;
18376;SDS011;9315;52.624;13.544;2022-08-21T14:46:34;4.03;;;0.90;;
18376;SDS011;9315;52.624;13.544;2022-08-21T14:49:21;1.83;;;0.55;;
18376;SDS011;9315;52.624;13.544;2022-08-21T14:51:54;1.42;;;0.70;;
18376;SDS011;9315;52.624;13.544;2022-08-21T14:54:27;2.67;;;0.80;;
18376;SDS011;9315;52.624;13.544;2022-08-21T14:57:08;4.65;;;0.95;;
18376;SDS011;9315;52.624;13.544;2022-08-21T14:59:38;5.53;;;0.98;;
18376;SDS011;9315;52.624;13.544;2022-08-21T15:02:06;3.42;;;0.90;;
18376;SDS011;9315;52.624;13.544;2022-08-21T15:04:34;4.10;;;0.80;;
18376;SDS011;9315;52.624;13.544;2022-08-21T15:07:01;4.72;;;0.95;;
18376;SDS011;9315;52.624;13.544;2022-08-21T15:09:29;5.32;;;0.80;;
18376;SDS011;9315;52.624;13.544;2022-08-21T15:11:57;3.35;;;0.90;;
18376;SDS011;9315;52.624;13.544;2022-08-21T15:14:27;2.20;;;0.80;;
18376;SDS011;9315;52.624;13.544;2022-08-21T15:16:59;2.90;;;0.90;;
18376;SDS011;9315;52.624;13.544;2022-08-21T15:19:26;2.97;;;1.15;;
18376;SDS011;9315;52.624;13.544;2022-08-21T15:21:55;5.13;;;0.95;;
18376;SDS011;9315;52.624;13.544;2022-08-21T15:24:23;4.25;;;0.80;;
18376;SDS011;9315;52.624;13.544;2022-08-21T15:26:50;2.83;;;1.00;;
18376;SDS011;9315;52.624;13.544;2022-08-21T15:29:20;4.85;;;0.73;;
18376;SDS011;9315;52.624;13.544;2022-08-21T15:31:55;3.80;;;0.80;;
18376;SDS011;9315;52.624;13.544;2022-08-21T15:34:29;8.15;;;1.63;;
18376;SDS011;9315;52.624;13.544;2022-08-21T15:36:57;4.30;;;0.98;;
18376;SDS011;9315;52.624;13.544;2022-08-21T15:39:25;3.72;;;1.00;;
18376;SDS011;9315;52.624;13.544;2022-08-21T15:41:56;3.97;;;1.02;;
18376;SDS011;9315;52.624;13.544;2022-08-21T15:44:36;2.75;;;1.08;;
18376;SDS011;9315;52.624;13.544;2022-08-21T15:47:18;4.88;;;1.00;;
18376;SDS011;9315;52.624;13.544;2022-08-21T15:52:42;4.05;;;1.10;;
18376;SDS011;9315;52.624;13.544;2022-08-21T15:55:38;2.05;;;0.63;;
18376;SDS011;9315;52.624;13.544;2022-08-21T16:02:21;3.67;;;1.25;;
18376;SDS011;9315;52.624;13.544;2022-08-21T16:04:56;2.55;;;1.10;;
18376;SDS011;9315;52.624;13.544;2022-08-21T16:07:25;4.63;;;1.13;;
18376;SDS011;9315;52.624;13.544;2022-08-21T16:09:52;5.25;;;1.15;;
18376;SDS011;9315;52.624;13.544;2022-08-21T16:12:20;3.10;;;0.90;;
18376;SDS011;9315;52.624;13.544;2022-08-21T16:14:57;5.18;;;1.00;;
18376;SDS011;9315;52.624;13.544;2022-08-21T16:17:28;3.63;;;1.13;;
18376;SDS011;9315;52.624;13.544;2022-08-21T16:20:00;5.93;;;1.35;;
18376;SDS011;9315;52.624;13.544;2022-08-21T16:22:33;2.42;;;1.00;;
18376;SDS011;9315;52.624;13.544;2022-08-21T16:25:10;2.67;;;1.00;;
18376;SDS011;9315;52.624;13.544;2022-08-21T16:27:41;3.60;;;1.27;;
18376;SDS011;9315;52.624;13.544;2022-08-21T16:30:12;5.22;;;1.20;;
18376;SDS011;9315;52.624;13.544;2022-08-21T16:32:41;3.40;;;1.05;;
18376;SDS011;9315;52.624;13.544;2022-08-21T16:35:10;3.63;;;1.75;;
18376;SDS011;9315;52.624;13.544;2022-08-21T16:37:43;3.72;;;2.15;;
18376;SDS011;9315;52.624;13.544;2022-08-21T16:40:17;4.07;;;1.75;;
18376;SDS011;9315;52.624;13.544;2022-08-21T16:42:44;7.05;;;2.60;;
18376;SDS011;9315;52.624;13.544;2022-08-21T16:45:31;5.70;;;2.40;;
18376;SDS011;9315;52.624;13.544;2022-08-21T16:48:04;4.75;;;1.60;;
18376;SDS011;9315;52.624;13.544;2022-08-21T16:50:34;5.28;;;1.38;;
18376;SDS011;9315;52.624;13.544;2022-08-21T16:53:03;4.53;;;1.00;;
18376;SDS011;9315;52.624;13.544;2022-08-21T16:55:33;2.10;;;0.90;;
18376;SDS011;9315;52.624;13.544;2022-08-21T16:58:02;6.03;;;1.20;;
18376;SDS011;9315;52.624;13.544;2022-08-21T17:00:40;3.13;;;0.93;;